Time;durP1;ratioP1;P1;durP2;ratioP2;P2;SDS_P1;SDS_P2;PMS_P1;PMS_P2;Temp;Humidity;BMP_temperature;BMP_pressure;BME280_temperature;BME280_humidity;BME280_pressure;Samples;Min_cycle;Max_cycle;Signal;HPM_P1;HPM_P2
2022/04/12 00:00:40;;;;;;;7.45;3.17;;;;;;;2.01;100.00;101683.16;4962144;28;20070;-75
2022/04/12 00:03:08;;;;;;;10.20;3.45;;;;;;;2.07;100.00;101686.31;4962825;28;20908;-75
2022/04/12 00:05:35;;;;;;;7.13;3.30;;;;;;;2.03;100.00;101684.75;4947138;28;20066;-77
2022/04/12 00:08:01;;;;;;;10.02;3.45;;;;;;;1.93;100.00;101666.22;4960096;28;20959;-76
2022/04/12 00:10:28;;;;;;;10.25;3.45;;;;;;;1.99;100.00;101675.44;4960016;28;20062;-76
2022/04/12 00:12:54;;;;;;;8.43;3.25;;;;;;;1.98;100.00;101684.13;4941368;28;20030;-78
2022/04/12 00:15:20;;;;;;;7.40;3.25;;;;;;;1.95;100.00;101677.31;4962323;28;20042;-79
2022/04/12 00:20:32;;;;;;;6.78;3.65;;;;;;;1.88;100.00;101673.31;4958441;28;20672;-77
2022/04/12 00:22:58;;;;;;;11.80;3.47;;;;;;;2.02;100.00;101682.25;4962952;28;20042;-76
2022/04/12 00:25:25;;;;;;;8.48;3.13;;;;;;;2.10;100.00;101673.22;4961243;28;20037;-78
2022/04/12 00:27:54;;;;;;;12.32;3.45;;;;;;;2.28;100.00;101683.63;4959863;28;20137;-79
2022/04/12 00:30:22;;;;;;;8.95;3.85;;;;;;;2.34;100.00;101679.03;4942226;28;20037;-79
2022/04/12 00:32:52;;;;;;;11.05;3.92;;;;;;;2.40;100.00;101683.09;4943702;28;20046;-78
2022/04/12 00:35:19;;;;;;;9.23;3.35;;;;;;;2.27;100.00;101675.03;4960609;28;20034;-77
2022/04/12 00:37:45;;;;;;;7.22;3.20;;;;;;;2.29;100.00;101677.56;4944142;28;20042;-78
2022/04/12 00:40:13;;;;;;;9.32;3.83;;;;;;;2.21;100.00;101667.56;4955910;28;20038;-78
2022/04/12 00:42:38;;;;;;;9.35;3.50;;;;;;;2.11;100.00;101664.56;4959799;28;20047;-75
2022/04/12 00:45:06;;;;;;;10.65;3.65;;;;;;;2.08;100.00;101651.75;4943740;28;20045;-76
2022/04/12 00:47:31;;;;;;;8.23;3.75;;;;;;;2.12;100.00;101662.81;4947878;28;20051;-79
2022/04/12 00:49:57;;;;;;;9.65;3.72;;;;;;;2.15;100.00;101662.66;4981614;28;20018;-76
2022/04/12 00:52:24;;;;;;;13.32;4.15;;;;;;;2.17;100.00;101655.69;4965257;28;20039;-78
2022/04/12 00:54:50;;;;;;;9.63;3.63;;;;;;;2.22;100.00;101664.03;4934896;28;20437;-78
2022/04/12 00:57:17;;;;;;;12.35;3.53;;;;;;;2.26;100.00;101665.63;4945027;28;20038;-77
2022/04/12 00:59:44;;;;;;;9.25;3.72;;;;;;;2.24;100.00;101651.91;4949980;28;20215;-78
2022/04/12 01:02:10;;;;;;;7.88;4.05;;;;;;;2.35;100.00;101651.38;4928039;28;20069;-77
2022/04/12 01:04:36;;;;;;;9.65;4.10;;;;;;;2.40;100.00;101648.59;4959467;28;20118;-78
2022/04/12 01:07:03;;;;;;;10.82;3.85;;;;;;;2.47;100.00;101643.06;4945861;28;20035;-78
2022/04/12 01:09:29;;;;;;;8.32;3.72;;;;;;;2.41;100.00;101638.19;4971389;28;20039;-77
2022/04/12 01:11:57;;;;;;;8.82;3.67;;;;;;;2.44;100.00;101632.00;4951503;28;20049;-79
2022/04/12 01:14:24;;;;;;;12.57;3.67;;;;;;;2.44;100.00;101627.66;4946405;28;20038;-77
2022/04/12 01:16:50;;;;;;;7.38;3.60;;;;;;;2.43;100.00;101614.78;4963520;28;20460;-75
2022/04/12 01:19:17;;;;;;;10.50;4.03;;;;;;;2.46;100.00;101625.81;4960847;28;20050;-76
2022/04/12 01:21:51;;;;;;;11.63;3.95;;;;;;;2.45;100.00;101610.34;4967040;28;20043;-76
2022/04/12 01:24:17;;;;;;;5.57;3.38;;;;;;;2.43;100.00;101618.22;4966073;28;20038;-76
2022/04/12 01:26:43;;;;;;;6.65;3.40;;;;;;;2.43;100.00;101612.19;4959501;28;20046;-77
2022/04/12 01:29:09;;;;;;;8.82;3.47;;;;;;;2.43;100.00;101599.25;4964637;28;20078;-76
2022/04/12 01:31:35;;;;;;;7.95;3.47;;;;;;;2.43;100.00;101597.50;4966497;28;20043;-76
2022/04/12 01:34:01;;;;;;;9.02;3.78;;;;;;;2.49;100.00;101602.38;4965250;28;20035;-77
2022/04/12 01:36:26;;;;;;;9.40;3.72;;;;;;;2.47;100.00;101599.03;4949372;28;20404;-76
2022/04/12 01:38:52;;;;;;;7.13;3.42;;;;;;;2.49;100.00;101589.44;4962925;28;20755;-77
2022/04/12 01:41:18;;;;;;;13.68;4.32;;;;;;;2.52;100.00;101602.25;4951874;28;20512;-77
2022/04/12 01:43:44;;;;;;;11.80;3.72;;;;;;;2.51;100.00;101599.72;4959965;28;20031;-76
2022/04/12 01:46:09;;;;;;;7.90;3.50;;;;;;;2.52;100.00;101588.44;4980185;28;20042;-77
2022/04/12 01:48:35;;;;;;;9.32;4.10;;;;;;;2.56;100.00;101587.38;4985316;28;20034;-75
2022/04/12 01:51:01;;;;;;;7.85;3.90;;;;;;;2.53;100.00;101590.13;4954999;28;20062;-77
2022/04/12 01:53:26;;;;;;;8.70;3.95;;;;;;;2.57;100.00;101594.25;4935108;28;20038;-77
2022/04/12 01:55:52;;;;;;;8.25;3.65;;;;;;;2.62;100.00;101591.41;4952518;28;20199;-78
2022/04/12 01:58:17;;;;;;;10.65;3.58;;;;;;;2.61;100.00;101595.78;4967923;28;20488;-76
2022/04/12 02:00:47;;;;;;;7.88;3.45;;;;;;;2.61;100.00;101588.00;4966077;28;20026;-77
2022/04/12 02:03:12;;;;;;;10.50;3.83;;;;;;;2.59;100.00;101592.41;4932461;28;20027;-77
2022/04/12 02:05:39;;;;;;;7.32;3.35;;;;;;;2.58;100.00;101583.00;4934001;28;20074;-76
2022/04/12 02:08:06;;;;;;;9.27;3.70;;;;;;;2.53;100.00;101585.78;4951832;28;20034;-75
2022/04/12 02:10:31;;;;;;;7.93;3.80;;;;;;;2.61;100.00;101582.00;4954130;28;20049;-78
2022/04/12 02:12:57;;;;;;;9.20;3.25;;;;;;;2.58;100.00;101580.41;4955451;28;20034;-78
2022/04/12 02:15:23;;;;;;;7.88;3.72;;;;;;;2.60;100.00;101572.53;4967221;28;20443;-76
2022/04/12 02:17:48;;;;;;;10.32;3.60;;;;;;;2.61;100.00;101571.63;4965488;28;20762;-77
2022/04/12 02:20:14;;;;;;;7.38;3.67;;;;;;;2.56;100.00;101573.59;4949535;28;20042;-76
2022/04/12 02:22:40;;;;;;;7.93;3.38;;;;;;;2.57;100.00;101570.09;4939733;28;20042;-75
2022/04/12 02:25:06;;;;;;;10.45;3.65;;;;;;;2.68;100.00;101573.84;4965880;28;20082;-75
2022/04/12 02:27:31;;;;;;;9.43;3.45;;;;;;;2.67;100.00;101573.91;4947474;28;20446;-75
2022/04/12 02:29:57;;;;;;;9.27;3.70;;;;;;;2.64;100.00;101582.69;4948051;28;20050;-74
2022/04/12 02:32:23;;;;;;;6.93;3.60;;;;;;;2.62;100.00;101578.47;4945779;28;20039;-78
2022/04/12 02:34:48;;;;;;;9.57;3.55;;;;;;;2.57;100.00;101588.25;4964515;28;20045;-76
2022/04/12 02:37:14;;;;;;;6.88;3.28;;;;;;;2.60;100.00;101585.47;4966550;28;20101;-76
2022/04/12 02:39:40;;;;;;;8.73;3.25;;;;;;;2.57;100.00;101573.53;4968810;28;20038;-79
2022/04/12 02:42:06;;;;;;;7.20;3.45;;;;;;;2.65;100.00;101589.53;4959978;28;20121;-74
2022/04/12 02:44:32;;;;;;;6.65;3.42;;;;;;;2.65;100.00;101573.16;4961676;28;20043;-75
2022/04/12 02:46:57;;;;;;;9.48;3.60;;;;;;;2.78;100.00;101586.34;4983398;28;20132;-77
2022/04/12 02:49:23;;;;;;;9.25;3.63;;;;;;;2.81;100.00;101578.44;4946633;28;20039;-76
2022/04/12 02:51:50;;;;;;;7.97;3.63;;;;;;;2.86;100.00;101566.94;4959804;28;20069;-74
2022/04/12 02:54:15;;;;;;;7.07;3.40;;;;;;;2.87;100.00;101568.59;4947953;28;20214;-76
2022/04/12 02:56:41;;;;;;;8.43;3.15;;;;;;;2.93;100.00;101572.63;4944482;28;20489;-77
2022/04/12 02:59:07;;;;;;;8.38;3.22;;;;;;;2.98;100.00;101564.63;4949519;28;20035;-76
2022/04/12 03:01:34;;;;;;;8.45;3.60;;;;;;;2.97;100.00;101568.13;4952946;28;20038;-76
2022/04/12 03:04:00;;;;;;;4.55;3.13;;;;;;;3.01;100.00;101572.25;4965274;28;20109;-77
2022/04/12 03:06:26;;;;;;;8.07;3.40;;;;;;;2.97;100.00;101568.13;4935732;28;20090;-77
2022/04/12 03:08:52;;;;;;;9.05;3.40;;;;;;;2.98;100.00;101560.28;4949339;28;20035;-77
2022/04/12 03:11:18;;;;;;;10.23;3.53;;;;;;;3.04;100.00;101565.16;4948359;28;20567;-77
2022/04/12 03:13:44;;;;;;;9.32;3.20;;;;;;;3.12;100.00;101569.94;4939505;28;20057;-77
2022/04/12 03:16:10;;;;;;;15.77;3.65;;;;;;;3.03;100.00;101568.69;4962446;28;20109;-77
2022/04/12 03:18:36;;;;;;;6.60;3.10;;;;;;;3.06;100.00;101572.84;4944848;28;20034;-78
2022/04/12 03:21:01;;;;;;;6.80;3.28;;;;;;;3.04;100.00;101575.53;4970492;28;20042;-76
2022/04/12 03:23:27;;;;;;;8.48;3.72;;;;;;;3.05;99.87;101565.97;4974095;28;20039;-76
2022/04/12 03:25:52;;;;;;;10.60;3.53;;;;;;;3.04;99.51;101574.69;4946133;28;20046;-76
2022/04/12 03:28:20;;;;;;;7.55;3.10;;;;;;;2.92;100.00;101576.97;4959726;28;20165;-78
2022/04/12 03:30:46;;;;;;;8.85;3.30;;;;;;;2.97;100.00;101587.09;4944061;28;20039;-76
2022/04/12 03:33:11;;;;;;;10.07;3.60;;;;;;;2.92;100.00;101576.97;4944929;28;20041;-76
2022/04/12 03:35:37;;;;;;;11.00;3.17;;;;;;;2.93;100.00;101577.81;4965848;28;20026;-77
2022/04/12 03:38:03;;;;;;;9.23;3.25;;;;;;;2.92;100.00;101581.34;4959615;28;20030;-79
2022/04/12 03:40:31;;;;;;;9.30;3.45;;;;;;;2.85;100.00;101582.53;4955026;28;20082;-76
2022/04/12 03:43:01;;;;;;;7.72;3.20;;;;;;;2.87;100.00;101589.31;4942540;28;20038;-77
2022/04/12 03:45:28;;;;;;;6.15;3.17;;;;;;;2.82;100.00;101574.91;4957878;28;20034;-76
2022/04/12 03:47:54;;;;;;;9.80;3.47;;;;;;;2.82;100.00;101583.50;4964255;28;20117;-77
2022/04/12 03:50:20;;;;;;;9.57;3.80;;;;;;;2.79;100.00;101578.50;4947001;28;20038;-77
2022/04/12 03:52:45;;;;;;;6.95;3.40;;;;;;;2.75;100.00;101570.94;4960767;28;20035;-77
2022/04/12 03:55:11;;;;;;;7.10;3.38;;;;;;;2.73;100.00;101573.59;4965375;28;20073;-76
2022/04/12 03:57:37;;;;;;;9.85;3.15;;;;;;;2.73;100.00;101565.84;4958821;28;20047;-76
2022/04/12 04:00:08;;;;;;;8.45;3.53;;;;;;;2.69;100.00;101566.91;4959805;28;20046;-77
2022/04/12 04:02:35;;;;;;;10.68;3.92;;;;;;;2.77;100.00;101571.69;4962351;28;20113;-76
2022/04/12 04:05:03;;;;;;;5.80;3.38;;;;;;;2.70;100.00;101572.00;4960680;28;20077;-76
2022/04/12 04:07:29;;;;;;;6.90;3.47;;;;;;;2.69;100.00;101566.91;4971981;28;20457;-77
2022/04/12 04:09:54;;;;;;;7.05;3.45;;;;;;;2.66;100.00;101565.31;4935601;28;20070;-77
2022/04/12 04:12:22;;;;;;;9.93;3.15;;;;;;;2.60;100.00;101568.22;4937393;28;20117;-77
2022/04/12 04:14:49;;;;;;;8.77;3.30;;;;;;;2.58;100.00;101562.28;4963793;28;20046;-76
2022/04/12 04:17:14;;;;;;;8.35;3.70;;;;;;;2.57;100.00;101559.75;4957816;28;20501;-77
2022/04/12 04:19:40;;;;;;;8.85;3.67;;;;;;;2.58;100.00;101566.59;4946743;28;20070;-76
2022/04/12 04:22:06;;;;;;;6.32;3.42;;;;;;;2.55;100.00;101564.16;4964198;28;20035;-76
2022/04/12 04:24:31;;;;;;;6.05;3.17;;;;;;;2.54;100.00;101563.31;4949532;28;20047;-77
2022/04/12 04:26:57;;;;;;;10.07;3.75;;;;;;;2.50;100.00;101561.78;4966521;28;20118;-77
2022/04/12 04:29:24;;;;;;;11.07;3.42;;;;;;;2.53;100.00;101554.72;4968070;28;20400;-77
2022/04/12 04:31:51;;;;;;;7.03;3.30;;;;;;;2.56;100.00;101550.28;4945726;28;20038;-77
2022/04/12 04:34:17;;;;;;;9.70;3.90;;;;;;;2.55;100.00;101556.41;4936095;28;20121;-76
2022/04/12 04:36:42;;;;;;;7.25;3.58;;;;;;;2.56;100.00;101551.13;4951364;28;20047;-77
2022/04/12 04:39:08;;;;;;;7.22;3.45;;;;;;;2.52;100.00;101553.03;4961829;28;20122;-77
2022/04/12 04:41:34;;;;;;;10.13;3.47;;;;;;;2.55;100.00;101546.88;4968304;28;20487;-76
2022/04/12 04:44:00;;;;;;;9.38;3.53;;;;;;;2.60;100.00;101546.63;4967974;28;20035;-76
2022/04/12 04:46:26;;;;;;;6.15;3.50;;;;;;;2.64;100.00;101561.97;4949314;28;20038;-77
2022/04/12 04:48:51;;;;;;;10.18;3.65;;;;;;;2.60;100.00;101551.81;4981255;28;20023;-75
2022/04/12 04:51:18;;;;;;;7.22;3.40;;;;;;;2.63;100.00;101565.44;4963870;28;20422;-76
2022/04/12 04:53:49;;;;;;;7.07;3.63;;;;;;;2.61;100.00;101562.09;4972573;28;20113;-78
2022/04/12 04:56:16;;;;;;;11.00;3.70;;;;;;;2.51;100.00;101566.06;4940192;28;20835;-77
2022/04/12 04:58:42;;;;;;;8.98;3.63;;;;;;;2.50;100.00;101572.13;4959959;28;20047;-76
2022/04/12 05:01:08;;;;;;;9.43;3.53;;;;;;;2.56;100.00;101578.78;4956655;28;20053;-76
2022/04/12 05:03:34;;;;;;;10.50;4.18;;;;;;;2.52;100.00;101573.75;4968930;28;20039;-77
2022/04/12 05:05:59;;;;;;;10.45;3.80;;;;;;;2.56;100.00;101574.44;4944913;28;20046;-76
2022/04/12 05:08:25;;;;;;;11.38;4.00;;;;;;;2.68;100.00;101580.78;4967854;28;20488;-77
2022/04/12 05:10:51;;;;;;;8.57;3.72;;;;;;;2.84;100.00;101583.44;4961409;28;20051;-77
2022/04/12 05:13:16;;;;;;;6.63;3.70;;;;;;;2.89;100.00;101581.47;4962364;28;20070;-76
2022/04/12 05:15:42;;;;;;;11.00;3.65;;;;;;;2.95;100.00;101586.34;4935325;28;20047;-78
2022/04/12 05:18:08;;;;;;;6.13;3.25;;;;;;;2.96;100.00;101577.66;4976250;28;20042;-76
2022/04/12 05:20:34;;;;;;;8.43;3.63;;;;;;;3.00;100.00;101579.19;4961047;28;20621;-77
2022/04/12 05:23:00;;;;;;;5.15;3.30;;;;;;;3.05;100.00;101582.41;4950311;28;20125;-77
2022/04/12 05:25:25;;;;;;;7.45;3.50;;;;;;;3.14;100.00;101595.78;4931839;28;20078;-77
2022/04/12 05:27:51;;;;;;;11.27;3.80;;;;;;;3.23;100.00;101603.13;4965300;28;20038;-77
2022/04/12 05:30:17;;;;;;;8.15;3.78;;;;;;;3.25;100.00;101601.28;4961824;28;20042;-78
2022/04/12 05:32:44;;;;;;;9.60;3.50;;;;;;;3.35;100.00;101609.41;4945618;28;20528;-76
2022/04/12 05:35:11;;;;;;;7.18;3.80;;;;;;;3.38;99.71;101609.28;4967438;28;20039;-78
2022/04/12 05:37:41;;;;;;;6.55;3.60;;;;;;;3.43;99.75;101610.72;4968022;28;20031;-76
2022/04/12 05:40:09;;;;;;;7.00;3.50;;;;;;;3.48;99.86;101621.69;4966814;28;20042;-75
2022/04/12 05:42:35;;;;;;;7.25;3.92;;;;;;;3.56;100.00;101625.63;4944817;28;20393;-77
2022/04/12 05:45:01;;;;;;;5.32;3.70;;;;;;;3.67;99.62;101623.31;4963025;28;20045;-77
2022/04/12 05:47:27;;;;;;;8.32;3.80;;;;;;;3.66;98.89;101611.28;4964436;28;20556;-78
2022/04/12 05:49:54;;;;;;;8.35;3.60;;;;;;;3.79;98.37;101635.66;4936551;28;20058;-77
2022/04/12 05:52:20;;;;;;;9.48;3.60;;;;;;;3.86;97.26;101634.41;4944784;28;20768;-77
2022/04/12 05:54:45;;;;;;;8.27;3.55;;;;;;;3.90;96.89;101642.88;4965598;28;20049;-76
2022/04/12 05:57:11;;;;;;;6.05;3.75;;;;;;;4.02;95.49;101637.03;4950646;28;20138;-77
2022/04/12 05:59:36;;;;;;;6.78;3.70;;;;;;;4.06;96.55;101640.28;4966112;28;20038;-77
2022/04/12 06:02:02;;;;;;;6.38;3.63;;;;;;;4.13;95.69;101648.63;4950305;28;20121;-79
2022/04/12 06:04:28;;;;;;;6.60;3.60;;;;;;;4.12;95.46;101631.34;4964668;28;20041;-77
2022/04/12 06:06:53;;;;;;;7.63;3.92;;;;;;;4.13;94.71;101636.47;4950102;28;20385;-77
2022/04/12 06:09:19;;;;;;;9.50;3.95;;;;;;;4.17;94.81;101640.56;4949798;28;20077;-77
2022/04/12 06:11:45;;;;;;;6.85;3.80;;;;;;;4.23;94.45;101626.41;4961772;28;20065;-75
2022/04/12 06:14:10;;;;;;;9.25;3.72;;;;;;;4.25;94.19;101630.59;4950174;28;20034;-75
2022/04/12 06:16:37;;;;;;;7.60;3.70;;;;;;;4.31;93.25;101620.78;4945983;28;20113;-76
2022/04/12 06:19:02;;;;;;;6.35;3.60;;;;;;;4.38;92.20;101619.53;4959737;28;20462;-77
2022/04/12 06:21:28;;;;;;;6.65;3.72;;;;;;;4.42;92.63;101606.28;4960224;28;20031;-76
2022/04/12 06:23:53;;;;;;;6.38;3.75;;;;;;;4.52;91.49;101598.84;4962839;28;20552;-76
2022/04/12 06:26:19;;;;;;;7.78;3.58;;;;;;;4.65;90.48;101604.16;4932918;28;20130;-76
2022/04/12 06:28:44;;;;;;;9.63;3.85;;;;;;;4.60;89.80;101593.19;4948072;28;20061;-76
2022/04/12 06:31:10;;;;;;;5.13;3.80;;;;;;;4.69;89.52;101597.88;4951560;28;20081;-78
2022/04/12 06:33:36;;;;;;;12.57;3.65;;;;;;;4.79;89.12;101601.59;4946129;28;20575;-76
2022/04/12 06:36:02;;;;;;;11.50;3.50;;;;;;;4.87;89.55;101594.19;4967493;28;20041;-77
2022/04/12 06:38:28;;;;;;;6.03;3.50;;;;;;;4.95;87.67;101592.91;4976414;28;20475;-77
2022/04/12 06:40:53;;;;;;;8.40;3.80;;;;;;;4.96;87.29;101585.03;4963510;28;20608;-77
2022/04/12 06:43:19;;;;;;;10.60;3.67;;;;;;;5.09;87.02;101592.97;4941725;28;20043;-77
2022/04/12 06:45:45;;;;;;;7.00;3.45;;;;;;;5.10;85.49;101605.03;4943982;28;20049;-77
2022/04/12 06:48:11;;;;;;;10.70;3.50;;;;;;;5.15;85.89;101605.59;4947968;28;20400;-76
2022/04/12 06:50:36;;;;;;;8.05;3.35;;;;;;;5.20;85.46;101613.16;4950454;28;20503;-77
2022/04/12 06:53:05;;;;;;;6.43;3.13;;;;;;;5.29;85.67;101609.97;4963387;28;20042;-77
2022/04/12 06:55:31;;;;;;;5.60;2.95;;;;;;;5.39;84.99;101616.31;4963187;28;20125;-76
2022/04/12 06:57:57;;;;;;;8.48;3.60;;;;;;;5.49;85.03;101618.38;4966676;28;20141;-75
2022/04/12 07:00:23;;;;;;;6.10;3.08;;;;;;;5.53;84.06;101623.28;4962261;28;20035;-77
2022/04/12 07:02:49;;;;;;;8.80;3.20;;;;;;;5.56;84.24;101617.91;4946824;28;20042;-76
2022/04/12 07:05:15;;;;;;;8.02;3.50;;;;;;;5.62;83.70;101614.09;4978417;28;20048;-77
2022/04/12 07:07:42;;;;;;;4.60;2.97;;;;;;;5.63;82.42;101610.56;4949282;28;20039;-76
2022/04/12 07:10:11;;;;;;;8.80;3.50;;;;;;;5.79;83.46;101624.31;4950178;28;20031;-76
2022/04/12 07:12:38;;;;;;;7.97;3.53;;;;;;;5.82;82.35;101625.88;4962815;28;20403;-74
2022/04/12 07:15:04;;;;;;;10.20;3.72;;;;;;;5.88;82.87;101625.53;4965531;28;20154;-76
2022/04/12 07:17:30;;;;;;;7.72;3.17;;;;;;;5.98;82.14;101626.66;4965931;28;20408;-76
2022/04/12 07:19:56;;;;;;;6.47;2.92;;;;;;;5.98;81.11;101631.03;4967784;28;20039;-76
2022/04/12 07:22:21;;;;;;;9.63;3.63;;;;;;;6.08;80.63;101644.31;4947097;28;20035;-76
2022/04/12 07:24:47;;;;;;;5.35;2.92;;;;;;;6.18;79.51;101635.84;4949905;28;20050;-76
2022/04/12 07:27:13;;;;;;;7.53;3.13;;;;;;;6.31;79.03;101645.47;4960540;28;20031;-75
2022/04/12 07:29:39;;;;;;;6.57;3.22;;;;;;;6.32;78.31;101637.56;4958445;28;20050;-76
2022/04/12 07:32:05;;;;;;;6.45;2.83;;;;;;;6.37;77.69;101647.72;4949777;28;20039;-78
2022/04/12 07:34:31;;;;;;;4.97;3.50;;;;;;;6.49;78.47;101646.09;4943621;28;20035;-78
2022/04/12 07:36:57;;;;;;;7.55;3.22;;;;;;;6.50;77.12;101638.19;4943352;28;20089;-78
2022/04/12 07:39:23;;;;;;;8.35;2.97;;;;;;;6.59;76.74;101636.75;4944693;28;20047;-78
2022/04/12 07:41:50;;;;;;;8.10;3.20;;;;;;;6.79;77.00;101651.09;4962246;28;20059;-76
2022/04/12 07:44:17;;;;;;;6.70;2.83;;;;;;;6.86;75.23;101654.16;4945508;28;20043;-77
2022/04/12 07:46:43;;;;;;;6.47;3.17;;;;;;;6.86;74.23;101654.16;4950864;28;20485;-76
2022/04/12 07:49:10;;;;;;;6.93;3.03;;;;;;;6.87;74.21;101656.66;4950764;28;20072;-75
2022/04/12 07:51:37;;;;;;;6.25;2.90;;;;;;;7.08;74.54;101661.41;4966188;28;20027;-77
2022/04/12 07:54:03;;;;;;;6.65;3.22;;;;;;;7.24;74.25;101654.22;4966566;28;20034;-76
2022/04/12 07:56:30;;;;;;;4.78;2.53;;;;;;;7.43;73.01;101642.56;4953144;28;20031;-78
2022/04/12 07:58:55;;;;;;;5.78;3.15;;;;;;;7.64;73.62;101642.88;4969041;28;20527;-75
2022/04/12 08:01:21;;;;;;;8.00;3.00;;;;;;;7.76;73.44;101644.63;4964828;28;20039;-75
2022/04/12 08:03:47;;;;;;;7.35;2.88;;;;;;;7.90;71.50;101649.72;4966596;28;20108;-76
2022/04/12 08:06:12;;;;;;;6.10;2.83;;;;;;;7.99;71.36;101651.72;4965747;28;20054;-75
2022/04/12 08:08:38;;;;;;;4.85;3.30;;;;;;;8.11;68.92;101652.63;4961514;28;20668;-75
2022/04/12 08:11:04;;;;;;;7.32;2.88;;;;;;;8.02;69.17;101632.34;4966134;28;20065;-76
2022/04/12 08:13:31;;;;;;;11.13;2.95;;;;;;;8.03;69.26;101628.81;4963718;28;20110;-78
2022/04/12 08:15:56;;;;;;;5.32;2.90;;;;;;;8.03;68.33;101631.44;4984765;28;20292;-75
2022/04/12 08:18:22;;;;;;;6.65;2.65;;;;;;;8.03;68.16;101639.25;4947675;28;20381;-76
2022/04/12 08:20:51;;;;;;;8.93;3.00;;;;;;;8.10;68.35;101623.97;4944987;28;20043;-76
2022/04/12 08:23:20;;;;;;;6.10;2.97;;;;;;;8.13;66.73;101636.84;4951953;28;20046;-77
2022/04/12 08:25:45;;;;;;;6.60;2.85;;;;;;;8.15;67.76;101634.94;4950865;28;20043;-76
2022/04/12 08:28:11;;;;;;;5.65;2.85;;;;;;;8.30;67.77;101633.84;4964464;28;20392;-77
2022/04/12 08:30:37;;;;;;;5.80;2.88;;;;;;;8.35;67.04;101628.31;4964132;28;20042;-76
2022/04/12 08:33:03;;;;;;;7.18;2.88;;;;;;;8.48;66.17;101628.28;4968841;28;20047;-77
2022/04/12 08:35:28;;;;;;;4.22;2.80;;;;;;;8.63;66.95;101637.63;4944919;28;20041;-75
2022/04/12 08:37:54;;;;;;;4.68;2.78;;;;;;;8.62;64.33;101615.03;4947095;28;20057;-76
2022/04/12 08:40:20;;;;;;;6.60;3.28;;;;;;;8.66;64.83;101615.63;4954562;28;20381;-76
2022/04/12 08:42:46;;;;;;;5.40;2.80;;;;;;;8.88;65.67;101620.97;4970496;28;20054;-76
2022/04/12 08:45:13;;;;;;;6.65;2.90;;;;;;;9.06;64.01;101620.53;4954290;28;20045;-76
2022/04/12 08:47:40;;;;;;;6.25;2.95;;;;;;;9.11;63.81;101626.25;4969219;28;20035;-77
2022/04/12 08:50:07;;;;;;;6.28;2.70;;;;;;;9.23;63.81;101612.25;4953399;28;20042;-76
2022/04/12 08:52:35;;;;;;;5.35;3.20;;;;;;;9.23;62.41;101616.63;4961997;28;20570;-78
2022/04/12 08:55:01;;;;;;;8.52;3.15;;;;;;;9.39;63.44;101605.84;4967992;28;20302;-77
2022/04/12 08:57:28;;;;;;;7.80;2.78;;;;;;;9.62;61.06;101617.97;4947010;29;20112;-76
2022/04/12 08:59:54;;;;;;;8.70;2.90;;;;;;;9.87;61.25;101611.69;4970405;28;20193;-75
2022/04/12 09:02:19;;;;;;;6.53;3.30;;;;;;;10.20;61.75;101609.94;4969005;28;20055;-76
2022/04/12 09:04:45;;;;;;;4.03;2.47;;;;;;;10.40;59.40;101607.56;4933287;28;20516;-76
2022/04/12 09:07:12;;;;;;;5.50;3.15;;;;;;;10.44;58.25;101624.72;4980768;28;20057;-79
2022/04/12 09:09:39;;;;;;;6.13;3.70;;;;;;;10.38;58.18;101612.06;4965598;28;20038;-79
2022/04/12 09:12:08;;;;;;;6.85;3.08;;;;;;;10.59;58.30;101614.78;4969482;28;20129;-78
2022/04/12 09:14:41;;;;;;;5.47;2.97;;;;;;;10.70;57.22;101614.72;4939346;28;20405;-79
2022/04/12 09:17:09;;;;;;;5.50;3.33;;;;;;;10.85;57.08;101612.59;4951082;28;20066;-75
2022/04/12 09:19:47;;;;;;;6.53;3.40;;;;;;;10.74;56.44;101613.50;4951790;28;20042;-77
2022/04/12 09:22:15;;;;;;;7.68;3.60;;;;;;;10.74;56.03;101615.28;4942924;28;20105;-77
2022/04/12 09:24:49;;;;;;;5.45;3.50;;;;;;;10.63;55.81;101610.94;4963052;28;20119;-77
2022/04/12 09:27:20;;;;;;;5.78;3.28;;;;;;;10.87;59.84;101621.22;4969517;28;20065;-78
2022/04/12 09:29:47;;;;;;;8.10;3.63;;;;;;;10.96;57.43;101603.84;4964174;28;20828;-77
2022/04/12 09:32:16;;;;;;;8.13;3.55;;;;;;;10.83;55.53;101601.41;4969354;28;20070;-76
2022/04/12 09:34:43;;;;;;;7.28;3.58;;;;;;;10.70;57.45;101599.81;4950505;28;20039;-78
2022/04/12 09:37:36;;;;;;;8.63;3.45;;;;;;;10.73;58.95;101601.34;4967451;28;20413;-76
2022/04/12 09:40:02;;;;;;;7.80;3.90;;;;;;;10.94;57.85;101608.38;4964594;28;20127;-77
2022/04/12 09:42:48;;;;;;;6.82;4.13;;;;;;;11.06;56.28;101608.19;4985662;28;20122;-76
2022/04/12 09:45:19;;;;;;;6.65;3.75;;;;;;;11.16;56.70;101600.38;4965306;28;20050;-78
2022/04/12 09:47:47;;;;;;;10.68;4.45;;;;;;;11.36;56.36;101601.34;4965628;28;20261;-77
2022/04/12 09:50:13;;;;;;;12.23;4.07;;;;;;;11.55;55.25;101594.50;4977732;28;20679;-77
2022/04/12 09:52:52;;;;;;;7.45;3.97;;;;;;;11.64;55.47;101593.69;4965029;28;20051;-76
2022/04/12 09:55:49;;;;;;;7.97;3.92;;;;;;;11.58;55.22;101592.41;4962849;28;20039;-76
2022/04/12 09:58:16;;;;;;;8.90;4.07;;;;;;;11.67;55.70;101586.38;4969981;28;20416;-76
2022/04/12 10:00:45;;;;;;;10.65;4.28;;;;;;;11.69;54.22;101581.81;4966914;28;20041;-74
2022/04/12 10:03:13;;;;;;;8.00;4.00;;;;;;;11.65;53.85;101584.84;4931554;28;20034;-76
2022/04/12 10:05:39;;;;;;;9.30;4.40;;;;;;;11.73;54.73;101584.19;4950431;28;20039;-78
2022/04/12 10:08:06;;;;;;;6.78;4.00;;;;;;;11.84;54.74;101587.53;4966326;28;20068;-77
2022/04/12 10:10:32;;;;;;;9.52;3.95;;;;;;;11.92;53.11;101580.81;4946009;28;20023;-77
2022/04/12 10:12:59;;;;;;;8.55;4.22;;;;;;;11.74;53.29;101573.53;4979672;28;20034;-76
2022/04/12 10:15:26;;;;;;;8.77;3.80;;;;;;;11.81;54.19;101576.44;4946572;28;20039;-75
2022/04/12 10:17:53;;;;;;;7.70;4.30;;;;;;;11.65;54.41;101575.16;4948774;28;20061;-76
2022/04/12 10:20:20;;;;;;;7.95;4.28;;;;;;;11.73;54.50;101577.13;4949548;28;20189;-76
2022/04/12 10:22:46;;;;;;;8.15;4.30;;;;;;;11.74;54.80;101570.09;4943740;28;20133;-78
2022/04/12 10:25:23;;;;;;;6.95;4.38;;;;;;;11.91;55.46;101574.72;4949789;28;20023;-80
2022/04/12 10:27:53;;;;;;;8.05;4.57;;;;;;;12.13;55.01;101576.31;4962569;28;20039;-77
2022/04/12 10:30:18;;;;;;;9.63;4.63;;;;;;;12.27;53.13;101564.53;4951061;28;20147;-77
2022/04/12 10:32:57;;;;;;;6.32;4.25;;;;;;;12.26;53.06;101566.34;4936992;28;20123;-76
2022/04/12 10:35:23;;;;;;;11.45;5.10;;;;;;;12.09;53.53;101559.09;4959194;28;20886;-76
2022/04/12 10:37:51;;;;;;;7.88;4.60;;;;;;;12.22;53.94;101556.22;4963165;28;20048;-78
2022/04/12 10:40:18;;;;;;;7.57;4.72;;;;;;;12.34;53.36;101551.66;4965688;28;20034;-78
2022/04/12 10:42:44;;;;;;;7.50;4.88;;;;;;;12.28;53.58;101539.88;4966514;28;20034;-75
2022/04/12 10:45:10;;;;;;;10.10;4.40;;;;;;;12.46;54.10;101540.03;4951814;28;20041;-78
2022/04/12 10:47:42;;;;;;;7.60;4.93;;;;;;;12.55;52.95;101526.03;4965530;28;20049;-78
2022/04/12 10:50:10;;;;;;;14.60;4.82;;;;;;;12.96;52.35;101525.81;4935403;28;20026;-78
2022/04/12 10:52:37;;;;;;;11.98;5.30;;;;;;;13.43;50.61;101534.56;4947674;28;20050;-77
2022/04/12 10:55:08;;;;;;;12.05;5.35;;;;;;;13.70;49.72;101532.06;4950310;28;20049;-76
2022/04/12 10:57:34;;;;;;;9.20;5.20;;;;;;;13.82;49.27;101529.09;4948550;28;20035;-75
2022/04/12 11:00:12;;;;;;;11.52;5.70;;;;;;;13.65;49.75;101521.94;4960376;28;20038;-78
2022/04/12 11:02:45;;;;;;;9.27;5.28;;;;;;;13.71;49.39;101526.66;4960087;28;20039;-78
2022/04/12 11:05:35;;;;;;;10.85;6.30;;;;;;;13.52;50.28;101522.28;4929252;28;20053;-77
2022/04/12 11:08:05;;;;;;;10.80;5.40;;;;;;;13.52;49.43;101510.94;4966264;28;20038;-78
2022/04/12 11:10:31;;;;;;;8.35;5.30;;;;;;;13.58;48.27;101510.31;4971302;28;20035;-77
2022/04/12 11:13:10;;;;;;;12.45;5.68;;;;;;;13.64;48.81;101525.56;4977563;28;20042;-78
2022/04/12 11:15:38;;;;;;;10.13;5.80;;;;;;;13.74;48.80;101528.16;4948255;28;20047;-77
2022/04/12 11:18:14;;;;;;;10.70;5.97;;;;;;;13.96;47.27;101524.28;4945308;28;20034;-76
2022/04/12 11:21:02;;;;;;;8.52;5.65;;;;;;;13.94;47.87;101520.97;4962909;28;20065;-78
2022/04/12 11:23:47;;;;;;;8.98;5.95;;;;;;;14.11;48.25;101514.00;4929542;29;20050;-78
2022/04/12 11:26:33;;;;;;;10.38;6.18;;;;;;;14.29;48.87;101500.81;4966499;28;20488;-77
2022/04/12 11:29:00;;;;;;;10.48;5.60;;;;;;;14.33;47.09;101491.59;4952710;28;20034;-76